Aviation Digital Data Service (ADDS)

Output produced by METARs form (1007 UTC 23 October 2017)
found at http://aviationweather.gov/adds/metars/
 
KFKL 230520Z 2306/2406 16005KT P6SM BKN100 
     FM231600 13015G28KT P6SM -SHRA OVC050 
     FM232200 15015G30KT 3SM RA OVC008